Time;durP1;ratioP1;P1;durP2;ratioP2;P2;SDS_P1;SDS_P2;PMS_P1;PMS_P2;Temp;Humidity;BMP_temperature;BMP_pressure;BME280_temperature;BME280_humidity;BME280_pressure;Samples;Min_cycle;Max_cycle;Signal;HPM_P1;HPM_P2
2023/12/23 00:02:35;;;;;;;;;;;;;;;;;;12824069;22;19912;-80
2023/12/23 00:07:35;;;;;;;;;;;;;;;;;;12892648;22;19914;-81
2023/12/23 00:12:36;;;;;;;;;;;;;;;;;;12880170;22;19926;-85
2023/12/23 00:17:36;;;;;;;;;;;;;;;;;;13029567;22;19920;-86
2023/12/23 00:22:36;;;;;;;;;;;;;;;;;;12870082;22;19935;-82
2023/12/23 00:27:37;;;;;;;;;;;;;;;;;;12868957;22;19912;-83
2023/12/23 00:32:39;;;;;;;;;;;;;;;;;;12994147;22;19917;-85
2023/12/23 00:37:40;;;;;;;;;;;;;;;;;;12892104;22;19928;-85
2023/12/23 00:42:41;;;;;;;;;;;;;;;;;;12890182;22;19912;-86
2023/12/23 00:47:41;;;;;;;;;;;;;;;;;;12998873;22;19911;-84
2023/12/23 00:52:44;;;;;;;;;;;;;;;;;;12968902;22;19915;-81
2023/12/23 00:57:45;;;;;;;;;;;;;;;;;;12935736;22;19923;-82
2023/12/23 01:02:45;;;;;;;;;;;;;;;;;;12830009;22;19926;-84
2023/12/23 01:07:45;;;;;;;;;;;;;;;;;;12845304;22;19927;-84
2023/12/23 01:12:46;;;;;;;;;;;;;;;;;;12943757;22;20225;-84
2023/12/23 01:17:46;;;;;;;;;;;;;;;;;;12952962;22;19920;-86
2023/12/23 01:22:48;;;;;;;;;;;;;;;;;;12983685;22;19920;-83
2023/12/23 01:27:48;;;;;;;;;;;;;;;;;;12913272;22;19945;-84
2023/12/23 01:32:49;;;;;;;;;;;;;;;;;;12912179;22;19927;-85
2023/12/23 01:37:49;;;;;;;;;;;;;;;;;;12944283;22;20574;-83
2023/12/23 01:42:50;;;;;;;;;;;;;;;;;;12926712;22;19931;-85
2023/12/23 01:47:50;;;;;;;;;;;;;;;;;;12887940;22;20002;-85
2023/12/23 01:52:50;;;;;;;;;;;;;;;;;;12888370;22;19971;-84
2023/12/23 01:57:52;;;;;;;;;;;;;;;;;;12866873;22;19945;-83
2023/12/23 02:02:52;;;;;;;;;;;;;;;;;;12861431;22;19912;-81
2023/12/23 02:07:53;;;;;;;;;;;;;;;;;;12884262;22;20221;-81
2023/12/23 02:12:53;;;;;;;;;;;;;;;;;;12891737;22;19956;-83
2023/12/23 02:17:54;;;;;;;;;;;;;;;;;;12882282;22;20004;-85
2023/12/23 02:22:54;;;;;;;;;;;;;;;;;;12867463;22;19916;-81
2023/12/23 02:27:54;;;;;;;;;;;;;;;;;;12904405;22;19923;-83
2023/12/23 02:32:54;;;;;;;;;;;;;;;;;;12892719;22;19951;-82
2023/12/23 02:37:55;;;;;;;;;;;;;;;;;;12862301;22;20022;-82
2023/12/23 02:42:55;;;;;;;;;;;;;;;;;;12890316;22;20631;-82
2023/12/23 02:47:56;;;;;;;;;;;;;;;;;;12889694;22;20650;-78
2023/12/23 02:52:56;;;;;;;;;;;;;;;;;;12843823;22;19915;-81
2023/12/23 02:57:58;;;;;;;;;;;;;;;;;;12888700;22;19932;-82
2023/12/23 03:02:58;;;;;;;;;;;;;;;;;;12859819;22;19920;-80
2023/12/23 03:07:58;;;;;;;;;;;;;;;;;;12887231;22;19926;-84
2023/12/23 03:12:58;;;;;;;;;;;;;;;;;;12902118;22;19916;-85
2023/12/23 03:17:59;;;;;;;;;;;;;;;;;;12917093;22;19961;-82
2023/12/23 03:22:59;;;;;;;;;;;;;;;;;;12906356;22;19919;-79
2023/12/23 03:28:00;;;;;;;;;;;;;;;;;;12920478;22;19919;-82
2023/12/23 03:33:00;;;;;;;;;;;;;;;;;;12932710;22;19912;-81
2023/12/23 03:38:00;;;;;;;;;;;;;;;;;;12949147;22;19907;-85
2023/12/23 03:43:01;;;;;;;;;;;;;;;;;;12917855;22;19960;-83
2023/12/23 03:48:01;;;;;;;;;;;;;;;;;;12949639;22;19922;-85
2023/12/23 03:53:03;;;;;;;;;;;;;;;;;;12926876;22;19931;-81
2023/12/23 03:58:03;;;;;;;;;;;;;;;;;;12920062;22;19926;-82
2023/12/23 04:03:05;;;;;;;;;;;;;;;;;;12893789;22;19916;-83
2023/12/23 04:08:05;;;;;;;;;;;;;;;;;;12825121;22;20439;-82
2023/12/23 04:13:05;;;;;;;;;;;;;;;;;;12860399;22;19969;-82
2023/12/23 04:18:05;;;;;;;;;;;;;;;;;;12865071;22;19920;-83
2023/12/23 04:23:06;;;;;;;;;;;;;;;;;;12902803;22;20019;-83
2023/12/23 04:28:07;;;;;;;;;;;;;;;;;;12866998;22;19957;-82
2023/12/23 04:33:09;;;;;;;;;;;;;;;;;;12868889;22;19920;-82
2023/12/23 04:38:11;;;;;;;;;;;;;;;;;;12834177;22;19923;-81
2023/12/23 04:43:11;;;;;;;;;;;;;;;;;;12899247;22;19912;-83
2023/12/23 04:48:12;;;;;;;;;;;;;;;;;;12864501;22;19941;-82
2023/12/23 04:53:14;;;;;;;;;;;;;;;;;;12860729;22;19916;-83
2023/12/23 04:58:14;;;;;;;;;;;;;;;;;;12886767;22;19923;-82
2023/12/23 05:03:14;;;;;;;;;;;;;;;;;;12872213;22;19919;-83
2023/12/23 05:08:20;;;;;;;;;;;;;;;;;;12910301;22;19916;-85
2023/12/23 05:13:21;;;;;;;;;;;;;;;;;;12924778;22;19949;-83
2023/12/23 05:18:21;;;;;;;;;;;;;;;;;;12886127;22;19939;-86
2023/12/23 05:23:23;;;;;;;;;;;;;;;;;;12889136;22;19943;-86
2023/12/23 05:28:23;;;;;;;;;;;;;;;;;;12846865;22;19930;-86
2023/12/23 05:33:25;;;;;;;;;;;;;;;;;;12919411;22;19920;-86
2023/12/23 05:38:27;;;;;;;;;;;;;;;;;;12916683;22;19924;-81
2023/12/23 05:43:27;;;;;;;;;;;;;;;;;;12883442;22;19915;-80
2023/12/23 05:48:28;;;;;;;;;;;;;;;;;;12912265;22;19915;-83
2023/12/23 05:53:28;;;;;;;;;;;;;;;;;;12922332;22;20312;-79
2023/12/23 05:58:28;;;;;;;;;;;;;;;;;;12941059;22;19907;-82
2023/12/23 06:03:28;;;;;;;;;;;;;;;;;;12922742;22;20551;-80
2023/12/23 06:08:29;;;;;;;;;;;;;;;;;;12949822;22;19915;-82
2023/12/23 06:13:29;;;;;;;;;;;;;;;;;;12900235;22;19980;-85
2023/12/23 06:18:30;;;;;;;;;;;;;;;;;;12895510;22;19944;-84
2023/12/23 06:23:31;;;;;;;;;;;;;;;;;;12899755;22;19920;-85
2023/12/23 06:28:31;;;;;;;;;;;;;;;;;;12907914;22;19960;-85
2023/12/23 06:33:32;;;;;;;;;;;;;;;;;;12909011;22;20417;-83
2023/12/23 06:38:33;;;;;;;;;;;;;;;;;;12900974;22;19924;-86
2023/12/23 06:43:33;;;;;;;;;;;;;;;;;;12878970;22;19930;-85
2023/12/23 06:48:34;;;;;;;;;;;;;;;;;;12886803;22;19916;-84
2023/12/23 06:53:35;;;;;;;;;;;;;;;;;;12840871;22;19985;-83
2023/12/23 06:58:37;;;;;;;;;;;;;;;;;;12849704;22;20483;-86
2023/12/23 07:03:38;;;;;;;;;;;;;;;;;;12875080;22;19916;-86
2023/12/23 07:08:40;;;;;;;;;;;;;;;;;;12889913;22;19915;-84
2023/12/23 07:13:40;;;;;;;;;;;;;;;;;;12837691;22;19915;-84
2023/12/23 07:18:43;;;;;;;;;;;;;;;;;;12889284;22;20203;-87
2023/12/23 07:23:44;;;;;;;;;;;;;;;;;;12853736;22;19912;-84
2023/12/23 07:28:44;;;;;;;;;;;;;;;;;;12914725;22;19943;-80
2023/12/23 07:33:46;;;;;;;;;;;;;;;;;;12889497;22;19990;-85
2023/12/23 07:38:49;;;;;;;;;;;;;;;;;;12849764;22;19927;-87
2023/12/23 07:43:49;;;;;;;;;;;;;;;;;;12887231;22;19903;-89
2023/12/23 07:48:50;;;;;;;;;;;;;;;;;;12919013;22;19916;-86
2023/12/23 07:53:50;;;;;;;;;;;;;;;;;;12858402;22;19916;-89
2023/12/23 07:58:51;;;;;;;;;;;;;;;;;;12874350;22;19923;-85
2023/12/23 08:03:52;;;;;;;;;;;;;;;;;;12892052;22;20040;-85
2023/12/23 08:08:52;;;;;;;;;;;;;;;;;;12839677;22;20701;-82
2023/12/23 08:13:56;;;;;;;;;;;;;;;;;;12849987;22;19967;-86
2023/12/23 08:18:56;;;;;;;;;;;;;;;;;;12912156;22;19976;-83
2023/12/23 08:23:56;;;;;;;;;;;;;;;;;;12876008;22;20159;-80
2023/12/23 08:28:57;;;;;;;;;;;;;;;;;;12863018;22;19912;-85
2023/12/23 08:33:58;;;;;;;;;;;;;;;;;;12947792;22;19950;-79
2023/12/23 08:38:58;;;;;;;;;;;;;;;;;;12910254;22;19924;-83
2023/12/23 08:43:59;;;;;;;;;;;;;;;;;;12898724;22;19907;-82
2023/12/23 08:49:01;;;;;;;;;;;;;;;;;;12920060;22;19975;-84
2023/12/23 08:54:04;;;;;;;;;;;;;;;;;;12843497;22;20395;-79
2023/12/23 08:59:05;;;;;;;;;;;;;;;;;;12884949;22;19930;-80
2023/12/23 09:04:05;;;;;;;;;;;;;;;;;;12886758;22;20256;-81
2023/12/23 09:09:06;;;;;;;;;;;;;;;;;;12882522;22;19924;-81
2023/12/23 09:14:07;;;;;;;;;;;;;;;;;;12888607;22;20101;-85
2023/12/23 09:19:09;;;;;;;;;;;;;;;;;;12845788;22;19928;-85
2023/12/23 09:24:09;;;;;;;;;;;;;;;;;;12863771;22;19983;-81
2023/12/23 09:29:09;;;;;;;;;;;;;;;;;;12843630;22;20426;-83
2023/12/23 09:34:10;;;;;;;;;;;;;;;;;;12889079;22;19915;-81
2023/12/23 09:39:10;;;;;;;;;;;;;;;;;;12877101;22;20086;-82
2023/12/23 09:44:10;;;;;;;;;;;;;;;;;;12920682;22;19926;-83
2023/12/23 09:49:10;;;;;;;;;;;;;;;;;;12915370;22;19911;-80
2023/12/23 09:54:11;;;;;;;;;;;;;;;;;;12857249;22;19900;-84
2023/12/23 09:59:11;;;;;;;;;;;;;;;;;;12901226;22;19967;-83
2023/12/23 10:04:11;;;;;;;;;;;;;;;;;;12912020;22;19916;-82
2023/12/23 10:09:12;;;;;;;;;;;;;;;;;;12888385;22;20329;-77
2023/12/23 10:14:12;;;;;;;;;;;;;;;;;;12892795;22;19912;-83
2023/12/23 10:19:13;;;;;;;;;;;;;;;;;;12875423;22;20297;-85
2023/12/23 10:24:13;;;;;;;;;;;;;;;;;;12907901;22;19936;-81
2023/12/23 10:29:13;;;;;;;;;;;;;;;;;;12903977;22;19916;-82
2023/12/23 10:34:14;;;;;;;;;;;;;;;;;;12913142;22;19922;-80
2023/12/23 10:39:14;;;;;;;;;;;;;;;;;;12916861;22;19931;-79
2023/12/23 10:44:14;;;;;;;;;;;;;;;;;;12899661;22;19950;-82
2023/12/23 10:49:16;;;;;;;;;;;;;;;;;;12890843;22;20352;-79
2023/12/23 10:54:16;;;;;;;;;;;;;;;;;;12933935;22;19927;-82
2023/12/23 10:59:16;;;;;;;;;;;;;;;;;;12877287;22;19993;-80
2023/12/23 11:04:17;;;;;;;;;;;;;;;;;;12855069;22;19915;-81
2023/12/23 11:09:17;;;;;;;;;;;;;;;;;;12885197;22;19915;-79
2023/12/23 11:14:17;;;;;;;;;;;;;;;;;;12860003;22;19991;-79
2023/12/23 11:19:17;;;;;;;;;;;;;;;;;;12885201;22;19931;-78
2023/12/23 11:24:17;;;;;;;;;;;;;;;;;;12858353;22;19926;-82
2023/12/23 11:29:20;;;;;;;;;;;;;;;;;;12886333;22;19920;-81
2023/12/23 11:34:20;;;;;;;;;;;;;;;;;;12859218;22;19916;-82
2023/12/23 11:39:21;;;;;;;;;;;;;;;;;;12860404;22;20018;-80
2023/12/23 11:44:21;;;;;;;;;;;;;;;;;;12898604;22;19920;-84
2023/12/23 11:49:21;;;;;;;;;;;;;;;;;;12907914;22;19920;-84
2023/12/23 11:54:21;;;;;;;;;;;;;;;;;;12904690;22;19961;-80
2023/12/23 11:59:22;;;;;;;;;;;;;;;;;;12887111;22;20265;-79
2023/12/23 12:04:22;;;;;;;;;;;;;;;;;;12882659;22;20067;-77
2023/12/23 12:09:22;;;;;;;;;;;;;;;;;;12889372;22;20375;-80
2023/12/23 12:14:22;;;;;;;;;;;;;;;;;;12870403;22;19915;-85
2023/12/23 12:19:22;;;;;;;;;;;;;;;;;;12883929;22;20010;-76
2023/12/23 12:24:23;;;;;;;;;;;;;;;;;;12883919;22;19915;-76
2023/12/23 12:29:23;;;;;;;;;;;;;;;;;;12882720;22;19994;-77
2023/12/23 12:34:23;;;;;;;;;;;;;;;;;;12865219;22;20389;-76
2023/12/23 12:39:23;;;;;;;;;;;;;;;;;;12887414;22;19923;-76
2023/12/23 12:44:26;;;;;;;;;;;;;;;;;;12865463;22;19954;-79
2023/12/23 12:49:26;;;;;;;;;;;;;;;;;;12859000;22;19916;-80
2023/12/23 12:54:26;;;;;;;;;;;;;;;;;;12882884;22;19935;-77
2023/12/23 12:59:26;;;;;;;;;;;;;;;;;;12881237;22;20356;-80
2023/12/23 13:04:28;;;;;;;;;;;;;;;;;;12830505;22;19969;-79
2023/12/23 13:09:28;;;;;;;;;;;;;;;;;;12881950;22;19922;-77
2023/12/23 13:14:28;;;;;;;;;;;;;;;;;;12881572;22;20412;-76
2023/12/23 13:19:28;;;;;;;;;;;;;;;;;;12823798;22;19940;-78
2023/12/23 13:24:29;;;;;;;;;;;;;;;;;;12881294;22;19922;-79
2023/12/23 13:29:29;;;;;;;;;;;;;;;;;;12881187;22;19915;-80
2023/12/23 13:34:29;;;;;;;;;;;;;;;;;;12857567;22;19951;-77
2023/12/23 13:39:30;;;;;;;;;;;;;;;;;;12855255;22;19943;-78
2023/12/23 13:44:34;;;;;;;;;;;;;;;;;;12860883;22;19919;-76
2023/12/23 13:49:35;;;;;;;;;;;;;;;;;;12887125;22;19916;-76
2023/12/23 13:54:35;;;;;;;;;;;;;;;;;;12893794;22;20366;-80
2023/12/23 13:59:35;;;;;;;;;;;;;;;;;;12887671;22;20365;-79
2023/12/23 14:04:35;;;;;;;;;;;;;;;;;;12840903;22;20359;-77
2023/12/23 14:09:36;;;;;;;;;;;;;;;;;;12858602;22;20461;-77
2023/12/23 14:14:36;;;;;;;;;;;;;;;;;;12841320;22;19923;-77
2023/12/23 14:19:36;;;;;;;;;;;;;;;;;;12884845;22;20368;-77
2023/12/23 14:24:38;;;;;;;;;;;;;;;;;;12890620;22;19942;-78
2023/12/23 14:29:39;;;;;;;;;;;;;;;;;;12883249;22;19919;-77
2023/12/23 14:34:39;;;;;;;;;;;;;;;;;;12890090;22;19916;-77
2023/12/23 14:39:39;;;;;;;;;;;;;;;;;;12897165;22;19974;-79
2023/12/23 14:44:39;;;;;;;;;;;;;;;;;;12899734;22;19978;-78
2023/12/23 14:49:40;;;;;;;;;;;;;;;;;;12874985;22;19915;-79
2023/12/23 14:54:40;;;;;;;;;;;;;;;;;;12893678;22;19915;-81
2023/12/23 14:59:40;;;;;;;;;;;;;;;;;;12904015;22;19907;-80
2023/12/23 15:04:40;;;;;;;;;;;;;;;;;;12946800;22;19994;-80
2023/12/23 15:09:41;;;;;;;;;;;;;;;;;;12936272;22;19955;-83
2023/12/23 15:14:41;;;;;;;;;;;;;;;;;;12928489;22;20308;-77
2023/12/23 15:19:41;;;;;;;;;;;;;;;;;;12907872;22;19919;-78
2023/12/23 15:24:41;;;;;;;;;;;;;;;;;;12893945;22;19915;-80
2023/12/23 15:29:42;;;;;;;;;;;;;;;;;;12888694;22;20259;-79
2023/12/23 15:34:42;;;;;;;;;;;;;;;;;;12884197;22;19923;-77
2023/12/23 15:39:43;;;;;;;;;;;;;;;;;;12882044;22;19923;-82
2023/12/23 15:44:43;;;;;;;;;;;;;;;;;;12882401;22;19926;-80
2023/12/23 15:49:43;;;;;;;;;;;;;;;;;;12855676;22;19994;-80
2023/12/23 15:54:43;;;;;;;;;;;;;;;;;;12854787;22;20010;-80
2023/12/23 15:59:45;;;;;;;;;;;;;;;;;;12855635;22;19928;-78
2023/12/23 16:04:45;;;;;;;;;;;;;;;;;;12855145;22;19966;-78
2023/12/23 16:09:45;;;;;;;;;;;;;;;;;;12883869;22;19915;-77
2023/12/23 16:14:45;;;;;;;;;;;;;;;;;;12859753;22;19923;-79
2023/12/23 16:19:45;;;;;;;;;;;;;;;;;;12881623;22;19934;-78
2023/12/23 16:24:46;;;;;;;;;;;;;;;;;;12882025;22;19916;-82
2023/12/23 16:29:46;;;;;;;;;;;;;;;;;;12888293;22;19924;-77
2023/12/23 16:34:47;;;;;;;;;;;;;;;;;;12882834;22;19915;-80
2023/12/23 16:39:48;;;;;;;;;;;;;;;;;;12859746;22;20182;-79
2023/12/23 16:44:48;;;;;;;;;;;;;;;;;;12889893;22;20022;-80
2023/12/23 16:49:48;;;;;;;;;;;;;;;;;;12886701;22;19920;-78
2023/12/23 16:54:49;;;;;;;;;;;;;;;;;;12831738;22;19915;-80
2023/12/23 16:59:50;;;;;;;;;;;;;;;;;;12882681;22;19923;-80
2023/12/23 17:04:50;;;;;;;;;;;;;;;;;;12888798;22;19915;-78
2023/12/23 17:09:50;;;;;;;;;;;;;;;;;;12902711;22;20378;-79
2023/12/23 17:14:52;;;;;;;;;;;;;;;;;;12889881;22;19964;-81
2023/12/23 17:19:52;;;;;;;;;;;;;;;;;;12891045;22;20065;-82
2023/12/23 17:24:53;;;;;;;;;;;;;;;;;;12890140;22;19935;-80
2023/12/23 17:29:53;;;;;;;;;;;;;;;;;;12849453;22;20585;-82
2023/12/23 17:34:56;;;;;;;;;;;;;;;;;;12888985;22;19912;-78
2023/12/23 17:39:56;;;;;;;;;;;;;;;;;;12882783;22;20528;-77
2023/12/23 17:44:58;;;;;;;;;;;;;;;;;;12853286;22;19926;-73
2023/12/23 17:49:58;;;;;;;;;;;;;;;;;;12855687;22;19915;-78
2023/12/23 17:54:58;;;;;;;;;;;;;;;;;;12855432;22;20006;-78
2023/12/23 17:59:58;;;;;;;;;;;;;;;;;;12886414;22;19968;-79
2023/12/23 18:04:59;;;;;;;;;;;;;;;;;;12887786;22;20080;-78
2023/12/23 18:09:59;;;;;;;;;;;;;;;;;;12878235;22;20569;-81
2023/12/23 18:14:59;;;;;;;;;;;;;;;;;;12895133;22;20673;-76
2023/12/23 18:19:59;;;;;;;;;;;;;;;;;;12871344;22;19923;-76
2023/12/23 18:25:00;;;;;;;;;;;;;;;;;;12887121;22;19982;-78
2023/12/23 18:30:00;;;;;;;;;;;;;;;;;;12904271;22;20354;-78
2023/12/23 18:35:00;;;;;;;;;;;;;;;;;;12925322;22;20396;-75
2023/12/23 18:40:01;;;;;;;;;;;;;;;;;;12861490;22;19931;-77
2023/12/23 18:45:05;;;;;;;;;;;;;;;;;;12885996;22;19923;-77
2023/12/23 18:50:05;;;;;;;;;;;;;;;;;;12856127;22;19915;-78
2023/12/23 18:55:05;;;;;;;;;;;;;;;;;;12878799;22;20014;-76
2023/12/23 19:00:05;;;;;;;;;;;;;;;;;;12881983;22;20266;-76
2023/12/23 19:05:06;;;;;;;;;;;;;;;;;;12881047;22;19916;-78
2023/12/23 19:10:06;;;;;;;;;;;;;;;;;;12881501;22;19962;-77
2023/12/23 19:15:06;;;;;;;;;;;;;;;;;;12882343;22;19922;-78
2023/12/23 19:20:08;;;;;;;;;;;;;;;;;;12886629;22;19923;-79
2023/12/23 19:25:08;;;;;;;;;;;;;;;;;;12897456;22;19915;-78
2023/12/23 19:30:08;;;;;;;;;;;;;;;;;;12892233;22;20328;-79
2023/12/23 19:35:09;;;;;;;;;;;;;;;;;;12842402;22;19922;-76
2023/12/23 19:40:09;;;;;;;;;;;;;;;;;;12900749;22;19959;-78
2023/12/23 19:45:12;;;;;;;;;;;;;;;;;;12910642;22;19931;-82
2023/12/23 19:50:12;;;;;;;;;;;;;;;;;;12910393;22;19947;-77
2023/12/23 19:55:12;;;;;;;;;;;;;;;;;;12877369;22;19981;-77
2023/12/23 20:00:13;;;;;;;;;;;;;;;;;;12907246;22;19977;-78
2023/12/23 20:05:13;;;;;;;;;;;;;;;;;;12887389;22;19939;-80
2023/12/23 20:10:15;;;;;;;;;;;;;;;;;;12890177;22;19935;-83
2023/12/23 20:15:15;;;;;;;;;;;;;;;;;;12886134;22;19911;-81
2023/12/23 20:20:15;;;;;;;;;;;;;;;;;;12830055;22;19931;-80
2023/12/23 20:25:16;;;;;;;;;;;;;;;;;;12853469;22;19915;-81
2023/12/23 20:30:16;;;;;;;;;;;;;;;;;;12883614;22;19915;-81
2023/12/23 20:35:16;;;;;;;;;;;;;;;;;;12843664;22;19919;-81
2023/12/23 20:40:16;;;;;;;;;;;;;;;;;;12832939;22;19934;-79
2023/12/23 20:45:17;;;;;;;;;;;;;;;;;;12881407;22;19942;-77
2023/12/23 20:50:17;;;;;;;;;;;;;;;;;;12883146;22;19916;-77
2023/12/23 20:55:19;;;;;;;;;;;;;;;;;;12881220;22;19912;-78
2023/12/23 21:00:20;;;;;;;;;;;;;;;;;;12855866;22;19955;-78
2023/12/23 21:05:20;;;;;;;;;;;;;;;;;;12852335;22;20318;-79
2023/12/23 21:10:21;;;;;;;;;;;;;;;;;;12879805;22;19961;-81
2023/12/23 21:15:24;;;;;;;;;;;;;;;;;;12858716;22;19972;-82
2023/12/23 21:20:24;;;;;;;;;;;;;;;;;;12846340;22;20376;-81
2023/12/23 21:25:25;;;;;;;;;;;;;;;;;;12892719;22;19920;-83
2023/12/23 21:30:26;;;;;;;;;;;;;;;;;;12892535;22;19963;-83
2023/12/23 21:35:27;;;;;;;;;;;;;;;;;;12894999;22;19990;-83
2023/12/23 21:40:28;;;;;;;;;;;;;;;;;;12928537;22;19920;-82
2023/12/23 21:45:30;;;;;;;;;;;;;;;;;;12875027;22;19960;-80
2023/12/23 21:50:33;;;;;;;;;;;;;;;;;;12936629;22;19906;-82
2023/12/23 21:55:33;;;;;;;;;;;;;;;;;;12892947;22;19939;-82
2023/12/23 22:00:34;;;;;;;;;;;;;;;;;;12915878;22;19944;-82
2023/12/23 22:05:34;;;;;;;;;;;;;;;;;;12919471;22;20495;-79
2023/12/23 22:26:26;;;;;;;;;;;;;;;;;;12819423;22;19938;-83
2023/12/23 22:31:27;;;;;;;;;;;;;;;;;;12858820;22;20321;-86
2023/12/23 22:36:29;;;;;;;;;;;;;;;;;;12875983;22;19938;-83
2023/12/23 22:41:33;;;;;;;;;;;;;;;;;;12862702;22;19938;-84
2023/12/23 22:46:33;;;;;;;;;;;;;;;;;;12880648;22;19959;-85
2023/12/23 22:51:35;;;;;;;;;;;;;;;;;;12907964;22;19915;-83
2023/12/23 22:56:37;;;;;;;;;;;;;;;;;;12901778;22;19924;-82
2023/12/23 23:01:38;;;;;;;;;;;;;;;;;;12870149;22;19919;-83
2023/12/23 23:06:42;;;;;;;;;;;;;;;;;;12874744;22;20140;-83
2023/12/23 23:11:43;;;;;;;;;;;;;;;;;;12899658;22;20002;-82
2023/12/23 23:16:44;;;;;;;;;;;;;;;;;;12881763;22;19934;-80
2023/12/23 23:21:45;;;;;;;;;;;;;;;;;;12920432;22;19923;-80
2023/12/23 23:26:47;;;;;;;;;;;;;;;;;;12916764;22;19962;-80
2023/12/23 23:31:47;;;;;;;;;;;;;;;;;;12885699;22;19915;-78
2023/12/23 23:36:48;;;;;;;;;;;;;;;;;;12894042;22;19924;-79
2023/12/23 23:41:49;;;;;;;;;;;;;;;;;;12919939;22;19988;-80
2023/12/23 23:46:50;;;;;;;;;;;;;;;;;;12922099;22;19915;-80
2023/12/23 23:51:50;;;;;;;;;;;;;;;;;;12916606;22;19915;-80
2023/12/23 23:56:52;;;;;;;;;;;;;;;;;;12901064;22;19908;-81
